Dersingham, United Kingdom
Current Conditions -  °F | °C
As of 8:50 AM on Wednesday 26 Nov 2014 (Local Time) from EGYM Reporting Station
Moderate Rain Moderate Rain  
Wind Chill: 43°   Ceiling: 2800
Heat Index: 46°   Visibility: 1.8mi
Dew Point: 45°   Wind: 7mph
Humidity: 93%   Direction: 80°E
Pressure: 29.91"   Gusts: NA
Location:  52.85°N, 0.5°E
Report Text: EGYM 260850Z 08006KT 3000 RA SCT007 SCT013 BKN028 08/07 Q1013 YLO1 NOSIG
Loading
Personal Weather Stations






























Interactive Weather Map New forecast layout! Learn more

10-Day Weather Forecast

Advertisements
Track Severe Weather on mobile